sensor_id;sensor_type;location;lat;lon;timestamp;pressure;altitude;pressure_sealevel;temperature;humidity
38812;BME280;24553;51.640;-0.752;2023-05-22T00:00:28;101302.75;;;12.25;100.00
38812;BME280;24553;51.640;-0.752;2023-05-22T00:02:53;101304.47;;;12.18;100.00
38812;BME280;24553;51.640;-0.752;2023-05-22T00:05:18;101305.75;;;12.22;100.00
38812;BME280;24553;51.640;-0.752;2023-05-22T00:07:45;101301.09;;;12.24;100.00
38812;BME280;24553;51.640;-0.752;2023-05-22T00:10:10;101301.72;;;12.26;100.00
38812;BME280;24553;51.640;-0.752;2023-05-22T00:12:36;101302.28;;;12.21;100.00
38812;BME280;24553;51.640;-0.752;2023-05-22T00:15:01;101298.97;;;12.19;100.00
38812;BME280;24553;51.640;-0.752;2023-05-22T00:17:27;101293.22;;;12.16;100.00
38812;BME280;24553;51.640;-0.752;2023-05-22T00:19:54;101285.41;;;12.14;100.00
38812;BME280;24553;51.640;-0.752;2023-05-22T00:22:20;101292.56;;;12.14;100.00
38812;BME280;24553;51.640;-0.752;2023-05-22T00:24:45;101289.91;;;12.14;100.00
38812;BME280;24553;51.640;-0.752;2023-05-22T00:27:11;101283.75;;;12.13;100.00
38812;BME280;24553;51.640;-0.752;2023-05-22T00:29:36;101285.56;;;12.13;100.00
38812;BME280;24553;51.640;-0.752;2023-05-22T00:32:02;101287.25;;;12.14;100.00
38812;BME280;24553;51.640;-0.752;2023-05-22T00:34:27;101284.75;;;12.12;100.00
38812;BME280;24553;51.640;-0.752;2023-05-22T00:36:53;101280.09;;;12.14;100.00
38812;BME280;24553;51.640;-0.752;2023-05-22T00:39:18;101289.25;;;12.12;100.00
38812;BME280;24553;51.640;-0.752;2023-05-22T00:41:43;101287.03;;;12.15;100.00
38812;BME280;24553;51.640;-0.752;2023-05-22T00:44:09;101279.72;;;12.17;100.00
38812;BME280;24553;51.640;-0.752;2023-05-22T00:46:34;101278.53;;;12.20;100.00
38812;BME280;24553;51.640;-0.752;2023-05-22T00:49:00;101270.75;;;12.18;100.00
38812;BME280;24553;51.640;-0.752;2023-05-22T00:51:25;101266.25;;;12.19;100.00
38812;BME280;24553;51.640;-0.752;2023-05-22T00:53:51;101261.22;;;12.24;100.00
38812;BME280;24553;51.640;-0.752;2023-05-22T00:56:18;101265.13;;;12.28;100.00
38812;BME280;24553;51.640;-0.752;2023-05-22T00:58:43;101265.13;;;12.28;100.00
38812;BME280;24553;51.640;-0.752;2023-05-22T01:01:10;101260.47;;;12.30;100.00
38812;BME280;24553;51.640;-0.752;2023-05-22T01:03:37;101263.78;;;12.32;100.00
38812;BME280;24553;51.640;-0.752;2023-05-22T01:06:06;101262.75;;;12.33;100.00
38812;BME280;24553;51.640;-0.752;2023-05-22T01:08:32;101262.97;;;12.32;100.00
38812;BME280;24553;51.640;-0.752;2023-05-22T01:11:09;101260.09;;;12.33;100.00
38812;BME280;24553;51.640;-0.752;2023-05-22T01:13:58;101254.78;;;12.33;100.00
38812;BME280;24553;51.640;-0.752;2023-05-22T01:19:19;101253.97;;;12.33;100.00
38812;BME280;24553;51.640;-0.752;2023-05-22T01:22:05;101257.06;;;12.36;100.00
38812;BME280;24553;51.640;-0.752;2023-05-22T01:24:48;101255.88;;;12.39;100.00
38812;BME280;24553;51.640;-0.752;2023-05-22T01:32:42;101258.19;;;12.27;100.00
38812;BME280;24553;51.640;-0.752;2023-05-22T01:35:11;101255.53;;;12.27;100.00
38812;BME280;24553;51.640;-0.752;2023-05-22T01:37:40;101254.50;;;12.28;100.00
38812;BME280;24553;51.640;-0.752;2023-05-22T01:40:07;101247.56;;;12.27;100.00
38812;BME280;24553;51.640;-0.752;2023-05-22T01:42:33;101245.88;;;12.26;100.00
38812;BME280;24553;51.640;-0.752;2023-05-22T01:44:58;101246.53;;;12.28;100.00
38812;BME280;24553;51.640;-0.752;2023-05-22T01:47:24;101245.88;;;12.26;100.00
38812;BME280;24553;51.640;-0.752;2023-05-22T01:49:49;101238.09;;;12.25;100.00
38812;BME280;24553;51.640;-0.752;2023-05-22T01:52:37;101240.56;;;12.26;100.00
38812;BME280;24553;51.640;-0.752;2023-05-22T01:55:21;101238.47;;;12.21;100.00
38812;BME280;24553;51.640;-0.752;2023-05-22T02:00:42;101231.41;;;12.14;100.00
38812;BME280;24553;51.640;-0.752;2023-05-22T02:03:15;101230.59;;;12.13;100.00
38812;BME280;24553;51.640;-0.752;2023-05-22T02:05:41;101228.22;;;12.18;100.00
38812;BME280;24553;51.640;-0.752;2023-05-22T02:08:09;101228.28;;;12.10;100.00
38812;BME280;24553;51.640;-0.752;2023-05-22T02:10:36;101228.28;;;12.10;100.00
38812;BME280;24553;51.640;-0.752;2023-05-22T02:13:02;101224.16;;;12.08;100.00
38812;BME280;24553;51.640;-0.752;2023-05-22T02:15:29;101230.22;;;12.02;100.00
38812;BME280;24553;51.640;-0.752;2023-05-22T02:17:54;101227.19;;;12.05;100.00
38812;BME280;24553;51.640;-0.752;2023-05-22T02:20:20;101222.06;;;12.03;100.00
38812;BME280;24553;51.640;-0.752;2023-05-22T02:22:46;101227.91;;;11.98;100.00
38812;BME280;24553;51.640;-0.752;2023-05-22T02:25:13;101225.81;;;11.94;100.00
38812;BME280;24553;51.640;-0.752;2023-05-22T02:27:43;101218.00;;;11.92;100.00
38812;BME280;24553;51.640;-0.752;2023-05-22T02:30:10;101224.97;;;11.93;100.00
38812;BME280;24553;51.640;-0.752;2023-05-22T02:32:35;101212.22;;;11.89;100.00
38812;BME280;24553;51.640;-0.752;2023-05-22T02:35:00;101209.91;;;11.86;100.00
38812;BME280;24553;51.640;-0.752;2023-05-22T02:37:27;101218.78;;;11.78;100.00
38812;BME280;24553;51.640;-0.752;2023-05-22T02:39:53;101211.81;;;11.77;100.00
38812;BME280;24553;51.640;-0.752;2023-05-22T02:42:18;101215.66;;;11.74;100.00
38812;BME280;24553;51.640;-0.752;2023-05-22T02:44:43;101216.84;;;11.72;100.00
38812;BME280;24553;51.640;-0.752;2023-05-22T02:47:09;101222.72;;;11.67;100.00
38812;BME280;24553;51.640;-0.752;2023-05-22T02:49:34;101221.25;;;11.65;100.00
38812;BME280;24553;51.640;-0.752;2023-05-22T02:51:59;101227.00;;;11.68;100.00
38812;BME280;24553;51.640;-0.752;2023-05-22T02:54:25;101223.16;;;11.71;100.00
38812;BME280;24553;51.640;-0.752;2023-05-22T02:56:50;101221.53;;;11.70;100.00
38812;BME280;24553;51.640;-0.752;2023-05-22T02:59:16;101218.22;;;11.68;100.00
38812;BME280;24553;51.640;-0.752;2023-05-22T03:01:41;101220.88;;;11.68;100.00
38812;BME280;24553;51.640;-0.752;2023-05-22T03:04:08;101218.38;;;11.66;100.00
38812;BME280;24553;51.640;-0.752;2023-05-22T03:06:33;101213.69;;;11.91;100.00
38812;BME280;24553;51.640;-0.752;2023-05-22T03:09:01;101208.25;;;11.70;100.00
38812;BME280;24553;51.640;-0.752;2023-05-22T03:11:29;101209.44;;;11.67;100.00
38812;BME280;24553;51.640;-0.752;2023-05-22T03:13:54;101206.28;;;11.64;100.00
38812;BME280;24553;51.640;-0.752;2023-05-22T03:16:19;101212.09;;;11.67;100.00
38812;BME280;24553;51.640;-0.752;2023-05-22T03:18:45;101214.53;;;11.69;100.00
38812;BME280;24553;51.640;-0.752;2023-05-22T03:21:10;101204.75;;;11.69;100.00
38812;BME280;24553;51.640;-0.752;2023-05-22T03:23:35;101203.91;;;11.69;100.00
38812;BME280;24553;51.640;-0.752;2023-05-22T03:26:01;101204.94;;;11.68;100.00
38812;BME280;24553;51.640;-0.752;2023-05-22T03:28:26;101203.19;;;11.60;100.00
38812;BME280;24553;51.640;-0.752;2023-05-22T03:30:51;101206.19;;;11.57;100.00
38812;BME280;24553;51.640;-0.752;2023-05-22T03:33:16;101205.09;;;11.51;100.00
38812;BME280;24553;51.640;-0.752;2023-05-22T03:35:42;101205.09;;;11.51;100.00
38812;BME280;24553;51.640;-0.752;2023-05-22T03:38:08;101214.88;;;11.51;100.00
38812;BME280;24553;51.640;-0.752;2023-05-22T03:40:34;101208.09;;;11.48;100.00
38812;BME280;24553;51.640;-0.752;2023-05-22T03:42:59;101207.47;;;11.46;100.00
38812;BME280;24553;51.640;-0.752;2023-05-22T03:45:24;101216.78;;;11.42;100.00
38812;BME280;24553;51.640;-0.752;2023-05-22T03:47:50;101213.81;;;11.37;100.00
38812;BME280;24553;51.640;-0.752;2023-05-22T03:50:15;101208.16;;;11.40;100.00
38812;BME280;24553;51.640;-0.752;2023-05-22T03:52:41;101207.50;;;11.38;100.00
38812;BME280;24553;51.640;-0.752;2023-05-22T03:55:07;101211.84;;;11.39;100.00
38812;BME280;24553;51.640;-0.752;2023-05-22T03:57:32;101213.00;;;11.37;100.00
38812;BME280;24553;51.640;-0.752;2023-05-22T03:59:57;101209.88;;;11.33;100.00
38812;BME280;24553;51.640;-0.752;2023-05-22T04:02:36;101210.06;;;11.31;100.00
38812;BME280;24553;51.640;-0.752;2023-05-22T04:05:08;101216.56;;;11.29;100.00
38812;BME280;24553;51.640;-0.752;2023-05-22T04:07:34;101214.72;;;11.29;100.00
38812;BME280;24553;51.640;-0.752;2023-05-22T04:10:01;101204.09;;;11.29;100.00
38812;BME280;24553;51.640;-0.752;2023-05-22T04:12:26;101208.22;;;11.32;100.00
38812;BME280;24553;51.640;-0.752;2023-05-22T04:14:51;101201.91;;;11.33;100.00
38812;BME280;24553;51.640;-0.752;2023-05-22T04:17:17;101211.03;;;11.30;100.00
38812;BME280;24553;51.640;-0.752;2023-05-22T04:19:42;101214.06;;;11.27;100.00
38812;BME280;24553;51.640;-0.752;2023-05-22T04:22:07;101206.47;;;11.24;100.00
38812;BME280;24553;51.640;-0.752;2023-05-22T04:24:32;101203.81;;;11.24;100.00
38812;BME280;24553;51.640;-0.752;2023-05-22T04:26:58;101208.09;;;11.25;100.00
38812;BME280;24553;51.640;-0.752;2023-05-22T04:29:24;101203.44;;;11.27;100.00
38812;BME280;24553;51.640;-0.752;2023-05-22T04:31:50;101201.28;;;11.31;100.00
38812;BME280;24553;51.640;-0.752;2023-05-22T04:34:18;101207.69;;;11.37;100.00
38812;BME280;24553;51.640;-0.752;2023-05-22T04:36:44;101200.84;;;11.42;100.00
38812;BME280;24553;51.640;-0.752;2023-05-22T04:39:11;101210.28;;;11.45;100.00
38812;BME280;24553;51.640;-0.752;2023-05-22T04:41:38;101210.94;;;11.47;100.00
38812;BME280;24553;51.640;-0.752;2023-05-22T04:44:04;101205.78;;;11.45;100.00
38812;BME280;24553;51.640;-0.752;2023-05-22T04:46:30;101204.97;;;11.45;100.00
38812;BME280;24553;51.640;-0.752;2023-05-22T04:48:55;101196.47;;;11.49;100.00
38812;BME280;24553;51.640;-0.752;2023-05-22T04:51:23;101202.34;;;11.60;100.00
38812;BME280;24553;51.640;-0.752;2023-05-22T04:53:48;101202.16;;;11.61;100.00
38812;BME280;24553;51.640;-0.752;2023-05-22T04:56:15;101207.47;;;11.61;100.00
38812;BME280;24553;51.640;-0.752;2023-05-22T04:58:41;101209.69;;;11.57;100.00
38812;BME280;24553;51.640;-0.752;2023-05-22T05:01:06;101211.59;;;11.64;100.00
38812;BME280;24553;51.640;-0.752;2023-05-22T05:03:33;101214.53;;;11.69;100.00
38812;BME280;24553;51.640;-0.752;2023-05-22T05:05:58;101214.47;;;11.77;100.00
38812;BME280;24553;51.640;-0.752;2023-05-22T05:08:24;101210.44;;;11.81;100.00
38812;BME280;24553;51.640;-0.752;2023-05-22T05:10:49;101215.91;;;11.88;100.00
38812;BME280;24553;51.640;-0.752;2023-05-22T05:13:15;101214.72;;;11.90;100.00
38812;BME280;24553;51.640;-0.752;2023-05-22T05:15:40;101217.00;;;11.93;100.00
38812;BME280;24553;51.640;-0.752;2023-05-22T05:18:05;101224.78;;;11.95;100.00
38812;BME280;24553;51.640;-0.752;2023-05-22T05:20:31;101221.69;;;11.91;100.00
38812;BME280;24553;51.640;-0.752;2023-05-22T05:22:56;101222.03;;;11.88;100.00
38812;BME280;24553;51.640;-0.752;2023-05-22T05:25:21;101220.72;;;11.84;100.00
38812;BME280;24553;51.640;-0.752;2023-05-22T05:27:47;101222.72;;;11.82;100.00
38812;BME280;24553;51.640;-0.752;2023-05-22T05:30:12;101230.88;;;11.81;100.00
38812;BME280;24553;51.640;-0.752;2023-05-22T05:32:38;101228.75;;;11.76;100.00
38812;BME280;24553;51.640;-0.752;2023-05-22T05:35:03;101233.97;;;11.69;100.00
38812;BME280;24553;51.640;-0.752;2023-05-22T05:37:29;101229.00;;;11.66;100.00
38812;BME280;24553;51.640;-0.752;2023-05-22T05:39:54;101236.34;;;11.64;100.00
38812;BME280;24553;51.640;-0.752;2023-05-22T05:42:19;101229.84;;;11.67;100.00
38812;BME280;24553;51.640;-0.752;2023-05-22T05:44:45;101242.22;;;11.74;100.00
38812;BME280;24553;51.640;-0.752;2023-05-22T05:47:10;101231.72;;;11.81;100.00
38812;BME280;24553;51.640;-0.752;2023-05-22T05:49:36;101242.97;;;11.83;100.00
38812;BME280;24553;51.640;-0.752;2023-05-22T05:52:01;101240.00;;;11.86;100.00
38812;BME280;24553;51.640;-0.752;2023-05-22T05:54:26;101234.31;;;11.89;100.00
38812;BME280;24553;51.640;-0.752;2023-05-22T05:56:52;101242.75;;;11.93;100.00
38812;BME280;24553;51.640;-0.752;2023-05-22T05:59:17;101240.47;;;12.05;100.00
38812;BME280;24553;51.640;-0.752;2023-05-22T06:01:44;101238.66;;;12.20;100.00
38812;BME280;24553;51.640;-0.752;2023-05-22T06:04:11;101246.44;;;12.21;100.00
38812;BME280;24553;51.640;-0.752;2023-05-22T06:06:36;101245.81;;;12.19;100.00
38812;BME280;24553;51.640;-0.752;2023-05-22T06:09:04;101251.88;;;12.13;100.00
38812;BME280;24553;51.640;-0.752;2023-05-22T06:11:30;101247.38;;;12.14;100.00
38812;BME280;24553;51.640;-0.752;2023-05-22T06:13:56;101250.59;;;12.24;100.00
38812;BME280;24553;51.640;-0.752;2023-05-22T06:16:23;101250.47;;;12.32;100.00
38812;BME280;24553;51.640;-0.752;2023-05-22T06:18:49;101240.41;;;12.42;100.00
38812;BME280;24553;51.640;-0.752;2023-05-22T06:21:17;101262.13;;;12.46;100.00
38812;BME280;24553;51.640;-0.752;2023-05-22T06:23:45;101257.88;;;12.52;100.00
38812;BME280;24553;51.640;-0.752;2023-05-22T06:26:10;101253.31;;;12.60;100.00
38812;BME280;24553;51.640;-0.752;2023-05-22T06:28:36;101244.41;;;12.68;100.00
38812;BME280;24553;51.640;-0.752;2023-05-22T06:31:01;101248.03;;;12.82;100.00
38812;BME280;24553;51.640;-0.752;2023-05-22T06:33:26;101255.78;;;12.98;100.00
38812;BME280;24553;51.640;-0.752;2023-05-22T06:35:52;101255.75;;;13.13;100.00
38812;BME280;24553;51.640;-0.752;2023-05-22T06:38:17;101262.09;;;13.27;100.00
38812;BME280;24553;51.640;-0.752;2023-05-22T06:40:42;101267.53;;;13.40;100.00
38812;BME280;24553;51.640;-0.752;2023-05-22T06:43:07;101259.84;;;13.52;100.00
38812;BME280;24553;51.640;-0.752;2023-05-22T06:45:33;101273.66;;;13.62;100.00
38812;BME280;24553;51.640;-0.752;2023-05-22T06:47:58;101275.09;;;13.58;100.00
38812;BME280;24553;51.640;-0.752;2023-05-22T06:50:23;101267.59;;;13.47;100.00
38812;BME280;24553;51.640;-0.752;2023-05-22T06:52:49;101268.59;;;13.67;100.00
38812;BME280;24553;51.640;-0.752;2023-05-22T06:55:15;101291.03;;;13.80;100.00
38812;BME280;24553;51.640;-0.752;2023-05-22T06:57:40;101274.66;;;13.83;100.00
38812;BME280;24553;51.640;-0.752;2023-05-22T07:00:06;101275.00;;;14.01;100.00
38812;BME280;24553;51.640;-0.752;2023-05-22T07:02:36;101273.22;;;14.08;100.00
38812;BME280;24553;51.640;-0.752;2023-05-22T07:05:01;101275.72;;;14.16;100.00
38812;BME280;24553;51.640;-0.752;2023-05-22T07:07:26;101279.22;;;14.17;100.00
38812;BME280;24553;51.640;-0.752;2023-05-22T07:09:52;101281.34;;;14.28;100.00
38812;BME280;24553;51.640;-0.752;2023-05-22T07:12:17;101291.03;;;14.36;100.00
38812;BME280;24553;51.640;-0.752;2023-05-22T07:14:44;101290.47;;;14.40;100.00
38812;BME280;24553;51.640;-0.752;2023-05-22T07:17:09;101292.50;;;14.45;100.00
38812;BME280;24553;51.640;-0.752;2023-05-22T07:19:35;101289.25;;;14.50;100.00
38812;BME280;24553;51.640;-0.752;2023-05-22T07:22:00;101292.16;;;14.48;100.00
38812;BME280;24553;51.640;-0.752;2023-05-22T07:24:25;101299.13;;;14.49;100.00
38812;BME280;24553;51.640;-0.752;2023-05-22T07:26:51;101300.34;;;14.47;100.00
38812;BME280;24553;51.640;-0.752;2023-05-22T07:29:16;101306.34;;;14.55;100.00
38812;BME280;24553;51.640;-0.752;2023-05-22T07:31:42;101307.38;;;14.54;100.00
38812;BME280;24553;51.640;-0.752;2023-05-22T07:34:07;101312.31;;;14.57;100.00
38812;BME280;24553;51.640;-0.752;2023-05-22T07:36:33;101321.78;;;14.60;100.00
38812;BME280;24553;51.640;-0.752;2023-05-22T07:38:59;101317.91;;;14.63;100.00
38812;BME280;24553;51.640;-0.752;2023-05-22T07:41:24;101319.28;;;14.58;100.00
38812;BME280;24553;51.640;-0.752;2023-05-22T07:43:51;101318.06;;;14.54;100.00
38812;BME280;24553;51.640;-0.752;2023-05-22T07:46:17;101322.25;;;14.42;100.00
38812;BME280;24553;51.640;-0.752;2023-05-22T07:48:42;101330.75;;;14.52;100.00
38812;BME280;24553;51.640;-0.752;2023-05-22T07:51:08;101330.59;;;14.60;100.00
38812;BME280;24553;51.640;-0.752;2023-05-22T07:53:34;101335.75;;;14.62;100.00
38812;BME280;24553;51.640;-0.752;2023-05-22T07:55:59;101332.41;;;14.88;100.00
38812;BME280;24553;51.640;-0.752;2023-05-22T07:58:25;101340.03;;;14.98;100.00
38812;BME280;24553;51.640;-0.752;2023-05-22T08:00:51;101338.38;;;14.90;100.00
38812;BME280;24553;51.640;-0.752;2023-05-22T08:03:16;101349.44;;;14.87;100.00
38812;BME280;24553;51.640;-0.752;2023-05-22T08:05:41;101343.06;;;14.88;100.00
38812;BME280;24553;51.640;-0.752;2023-05-22T08:08:07;101345.94;;;14.87;100.00
38812;BME280;24553;51.640;-0.752;2023-05-22T08:10:34;101353.94;;;14.80;100.00
38812;BME280;24553;51.640;-0.752;2023-05-22T08:13:00;101343.66;;;14.83;100.00
38812;BME280;24553;51.640;-0.752;2023-05-22T08:15:30;101348.94;;;14.70;100.00
38812;BME280;24553;51.640;-0.752;2023-05-22T08:17:55;101359.66;;;14.77;100.00
38812;BME280;24553;51.640;-0.752;2023-05-22T08:20:21;101360.97;;;14.94;100.00
38812;BME280;24553;51.640;-0.752;2023-05-22T08:22:46;101358.78;;;15.11;100.00
38812;BME280;24553;51.640;-0.752;2023-05-22T08:25:11;101358.78;;;15.11;100.00
38812;BME280;24553;51.640;-0.752;2023-05-22T08:27:37;101358.75;;;15.04;100.00
38812;BME280;24553;51.640;-0.752;2023-05-22T08:30:02;101358.34;;;15.01;100.00
38812;BME280;24553;51.640;-0.752;2023-05-22T08:32:28;101364.50;;;15.01;100.00
38812;BME280;24553;51.640;-0.752;2023-05-22T08:34:53;101364.91;;;14.98;100.00
38812;BME280;24553;51.640;-0.752;2023-05-22T08:37:19;101365.13;;;15.03;100.00
38812;BME280;24553;51.640;-0.752;2023-05-22T08:39:45;101366.75;;;15.04;100.00
38812;BME280;24553;51.640;-0.752;2023-05-22T08:42:10;101359.16;;;15.01;100.00
38812;BME280;24553;51.640;-0.752;2023-05-22T08:44:35;101372.16;;;14.76;100.00
38812;BME280;24553;51.640;-0.752;2023-05-22T08:47:01;101366.75;;;14.63;100.00
38812;BME280;24553;51.640;-0.752;2023-05-22T08:49:29;101363.66;;;14.59;100.00
38812;BME280;24553;51.640;-0.752;2023-05-22T08:51:59;101371.09;;;14.64;100.00
38812;BME280;24553;51.640;-0.752;2023-05-22T08:54:27;101371.91;;;14.65;100.00
38812;BME280;24553;51.640;-0.752;2023-05-22T08:56:53;101366.25;;;14.81;100.00
38812;BME280;24553;51.640;-0.752;2023-05-22T08:59:19;101367.34;;;14.93;100.00
38812;BME280;24553;51.640;-0.752;2023-05-22T09:01:45;101366.31;;;14.94;100.00
38812;BME280;24553;51.640;-0.752;2023-05-22T09:04:12;101363.28;;;15.04;100.00
38812;BME280;24553;51.640;-0.752;2023-05-22T09:06:37;101375.63;;;15.12;100.00
38812;BME280;24553;51.640;-0.752;2023-05-22T09:09:03;101365.81;;;15.19;100.00
38812;BME280;24553;51.640;-0.752;2023-05-22T09:11:28;101372.22;;;15.31;100.00
38812;BME280;24553;51.640;-0.752;2023-05-22T09:14:08;101367.38;;;15.55;100.00
38812;BME280;24553;51.640;-0.752;2023-05-22T09:16:46;101370.72;;;15.83;100.00
38812;BME280;24553;51.640;-0.752;2023-05-22T09:19:13;101364.13;;;15.79;100.00
38812;BME280;24553;51.640;-0.752;2023-05-22T09:21:41;101361.66;;;15.98;100.00
38812;BME280;24553;51.640;-0.752;2023-05-22T09:24:08;101362.09;;;16.28;100.00
38812;BME280;24553;51.640;-0.752;2023-05-22T09:26:34;101370.53;;;16.38;100.00
38812;BME280;24553;51.640;-0.752;2023-05-22T09:29:00;101353.41;;;16.46;100.00
38812;BME280;24553;51.640;-0.752;2023-05-22T09:31:27;101359.78;;;16.78;100.00
38812;BME280;24553;51.640;-0.752;2023-05-22T09:33:53;101357.56;;;17.13;100.00
38812;BME280;24553;51.640;-0.752;2023-05-22T09:36:19;101366.66;;;17.12;100.00
38812;BME280;24553;51.640;-0.752;2023-05-22T09:38:45;101348.72;;;17.06;100.00
38812;BME280;24553;51.640;-0.752;2023-05-22T09:41:10;101345.16;;;17.19;100.00
38812;BME280;24553;51.640;-0.752;2023-05-22T09:43:35;101351.94;;;17.60;100.00
38812;BME280;24553;51.640;-0.752;2023-05-22T09:46:02;101338.78;;;17.58;100.00
38812;BME280;24553;51.640;-0.752;2023-05-22T09:48:33;101357.72;;;17.63;100.00
38812;BME280;24553;51.640;-0.752;2023-05-22T09:51:01;101352.72;;;17.35;100.00
38812;BME280;24553;51.640;-0.752;2023-05-22T09:53:28;101358.28;;;17.34;100.00
38812;BME280;24553;51.640;-0.752;2023-05-22T09:55:58;101357.00;;;17.43;100.00
38812;BME280;24553;51.640;-0.752;2023-05-22T09:58:25;101368.19;;;17.40;100.00
38812;BME280;24553;51.640;-0.752;2023-05-22T10:00:51;101366.84;;;17.56;100.00
38812;BME280;24553;51.640;-0.752;2023-05-22T10:03:21;101377.66;;;17.36;100.00
38812;BME280;24553;51.640;-0.752;2023-05-22T10:05:51;101366.16;;;17.29;100.00
38812;BME280;24553;51.640;-0.752;2023-05-22T10:08:22;101360.97;;;17.65;100.00
38812;BME280;24553;51.640;-0.752;2023-05-22T10:10:50;101359.78;;;18.43;100.00
38812;BME280;24553;51.640;-0.752;2023-05-22T10:13:17;101370.38;;;18.38;100.00
38812;BME280;24553;51.640;-0.752;2023-05-22T10:15:42;101367.00;;;18.43;100.00
38812;BME280;24553;51.640;-0.752;2023-05-22T10:18:08;101372.16;;;18.44;100.00
38812;BME280;24553;51.640;-0.752;2023-05-22T10:20:34;101361.53;;;18.74;100.00
38812;BME280;24553;51.640;-0.752;2023-05-22T10:23:02;101362.50;;;18.80;100.00
38812;BME280;24553;51.640;-0.752;2023-05-22T10:25:27;101361.69;;;18.98;100.00
38812;BME280;24553;51.640;-0.752;2023-05-22T10:27:53;101365.69;;;18.70;100.00
38812;BME280;24553;51.640;-0.752;2023-05-22T10:36:03;101380.00;;;18.21;100.00
38812;BME280;24553;51.640;-0.752;2023-05-22T10:41:21;101385.25;;;17.77;100.00
38812;BME280;24553;51.640;-0.752;2023-05-22T10:43:48;101378.22;;;17.51;100.00
38812;BME280;24553;51.640;-0.752;2023-05-22T10:46:14;101383.22;;;17.41;100.00
38812;BME280;24553;51.640;-0.752;2023-05-22T10:48:44;101385.56;;;17.62;100.00
38812;BME280;24553;51.640;-0.752;2023-05-22T10:51:17;101378.25;;;17.76;100.00
38812;BME280;24553;51.640;-0.752;2023-05-22T10:53:43;101385.47;;;17.76;100.00
38812;BME280;24553;51.640;-0.752;2023-05-22T10:56:15;101379.94;;;17.71;100.00
38812;BME280;24553;51.640;-0.752;2023-05-22T10:58:43;101369.06;;;17.97;100.00
38812;BME280;24553;51.640;-0.752;2023-05-22T11:08:58;101351.16;;;18.96;100.00
38812;BME280;24553;51.640;-0.752;2023-05-22T11:11:24;101361.44;;;19.00;100.00
38812;BME280;24553;51.640;-0.752;2023-05-22T11:13:51;101346.41;;;18.80;100.00
38812;BME280;24553;51.640;-0.752;2023-05-22T11:16:16;101351.44;;;18.51;100.00
38812;BME280;24553;51.640;-0.752;2023-05-22T11:18:42;101360.13;;;18.28;100.00
38812;BME280;24553;51.640;-0.752;2023-05-22T11:21:10;101364.84;;;18.33;100.00
38812;BME280;24553;51.640;-0.752;2023-05-22T11:23:38;101349.84;;;18.25;100.00
38812;BME280;24553;51.640;-0.752;2023-05-22T11:26:19;101360.28;;;18.08;100.00
38812;BME280;24553;51.640;-0.752;2023-05-22T11:28:50;101362.09;;;18.15;100.00
38812;BME280;24553;51.640;-0.752;2023-05-22T11:31:16;101368.84;;;18.24;100.00
38812;BME280;24553;51.640;-0.752;2023-05-22T11:33:44;101365.66;;;18.08;100.00
38812;BME280;24553;51.640;-0.752;2023-05-22T11:36:10;101376.16;;;17.85;100.00
38812;BME280;24553;51.640;-0.752;2023-05-22T11:38:36;101378.84;;;17.85;100.00
38812;BME280;24553;51.640;-0.752;2023-05-22T11:41:02;101368.81;;;17.67;100.00
38812;BME280;24553;51.640;-0.752;2023-05-22T11:46:49;101360.34;;;17.70;100.00
38812;BME280;24553;51.640;-0.752;2023-05-22T11:49:15;101362.91;;;17.58;100.00
38812;BME280;24553;51.640;-0.752;2023-05-22T11:51:41;101360.53;;;17.37;100.00
38812;BME280;24553;51.640;-0.752;2023-05-22T11:54:06;101365.19;;;17.55;100.00
38812;BME280;24553;51.640;-0.752;2023-05-22T11:56:32;101363.41;;;17.42;100.00
38812;BME280;24553;51.640;-0.752;2023-05-22T11:58:57;101363.94;;;17.57;100.00
38812;BME280;24553;51.640;-0.752;2023-05-22T12:01:23;101360.47;;;18.14;100.00
38812;BME280;24553;51.640;-0.752;2023-05-22T12:03:48;101358.25;;;18.29;100.00
38812;BME280;24553;51.640;-0.752;2023-05-22T12:06:13;101352.53;;;18.25;100.00
38812;BME280;24553;51.640;-0.752;2023-05-22T12:08:39;101355.13;;;18.32;100.00
38812;BME280;24553;51.640;-0.752;2023-05-22T12:11:04;101364.22;;;18.31;100.00
38812;BME280;24553;51.640;-0.752;2023-05-22T12:13:31;101363.78;;;18.34;100.00
38812;BME280;24553;51.640;-0.752;2023-05-22T12:15:58;101362.53;;;18.37;100.00
38812;BME280;24553;51.640;-0.752;2023-05-22T12:18:25;101367.06;;;18.36;100.00
38812;BME280;24553;51.640;-0.752;2023-05-22T12:20:52;101358.81;;;18.13;100.00
38812;BME280;24553;51.640;-0.752;2023-05-22T12:25:55;101362.81;;;18.03;100.00
38812;BME280;24553;51.640;-0.752;2023-05-22T12:28:20;101361.50;;;18.13;100.00
38812;BME280;24553;51.640;-0.752;2023-05-22T12:30:51;101356.00;;;18.26;100.00
38812;BME280;24553;51.640;-0.752;2023-05-22T12:33:16;101357.41;;;18.10;100.00
38812;BME280;24553;51.640;-0.752;2023-05-22T12:35:42;101358.88;;;18.31;100.00
38812;BME280;24553;51.640;-0.752;2023-05-22T12:38:07;101343.44;;;18.45;100.00
38812;BME280;24553;51.640;-0.752;2023-05-22T12:40:33;101350.03;;;18.86;100.00
38812;BME280;24553;51.640;-0.752;2023-05-22T12:42:58;101336.25;;;18.82;100.00
38812;BME280;24553;51.640;-0.752;2023-05-22T12:45:23;101342.72;;;19.11;100.00
38812;BME280;24553;51.640;-0.752;2023-05-22T12:47:49;101346.63;;;19.57;97.75
38812;BME280;24553;51.640;-0.752;2023-05-22T12:50:14;101344.00;;;19.93;97.88
38812;BME280;24553;51.640;-0.752;2023-05-22T12:52:39;101343.34;;;20.33;98.06
38812;BME280;24553;51.640;-0.752;2023-05-22T12:55:05;101344.50;;;20.13;96.52
38812;BME280;24553;51.640;-0.752;2023-05-22T12:57:31;101332.91;;;20.13;98.23
38812;BME280;24553;51.640;-0.752;2023-05-22T12:59:56;101337.59;;;20.05;99.77